Home > Products > Valid Products > TAF

000
FTUS44 KSHV 251544 AAB
TAFSHV
TAF AMD
KSHV 251544Z 2516/2612 19010G16KT P6SM SCT030 BKN100
     FM252100 18010KT P6SM VCTS SCT040CB BKN100
     FM260000 16007KT P6SM FEW040 BKN250
     FM261000 16007KT P6SM SCT015 BKN250=



000
FTUS44 KSHV 250521
TAFELD
TAF
KELD 250521Z 2506/2606 00000KT P6SM FEW050 BKN090 WS010/19020KT
      TEMPO 2511/2513 4SM BR OVC007
     FM251600 17009KT P6SM BKN025 BKN250
     FM252100 16011KT P6SM BKN035=



000
FTUS44 KSHV 250521
TAFMLU
TAF
KMLU 250521Z 2506/2606 VRB03KT P6SM SKC WS010/19020KT
     FM251000 17003KT 6SM BR BKN015
      TEMPO 2510/2513 4SM BR OVC007
     FM251600 18010G16KT P6SM SCT025 BKN100
     FM252100 18010KT P6SM VCTS SCT040CB BKN100
     FM260000 18006KT P6SM BKN250=



000
FTUS44 KSHV 250521
TAFTYR
TAF
KTYR 250521Z 2506/2606 16011KT P6SM FEW080 WS010/19030KT
      TEMPO 2506/2509 BKN020
     FM250900 18010KT P6SM BKN015
      TEMPO 2511/2513 OVC007
     FM251700 17012G18KT P6SM BKN025 BKN250
     FM252100 18010KT P6SM OVC035
     FM260300 16008KT P6SM OVC025=



000
FTUS44 KSHV 250521
TAFTXK
TAF
KTXK 250521Z 2506/2606 12006KT P6SM SKC WS010/19025KT
     FM251100 17007KT P6SM OVC015
      TEMPO 2511/2513 4SM BR OVC007
     FM251500 18012KT P6SM BKN025 BKN250
     FM252100 17012KT P6SM OVC050=



000
FTUS44 KSHV 250521
TAFSHV
TAF
KSHV 250521Z 2506/2606 15009KT P6SM FEW080 SCT270 WS010/19025KT
     FM251000 18006KT 6SM BR BKN015
      TEMPO 2510/2513 4SM BR OVC007
     FM251500 17010G16KT P6SM SCT015 BKN100
     FM252100 18010KT P6SM VCTS SCT040CB BKN100
     FM260000 16007KT P6SM BKN250=



000
FTUS44 KSHV 250521
TAFGGG
TAF
KGGG 250521Z 2506/2606 16012KT P6SM OVC080 WS010/19025KT
     FM250900 18010KT P6SM BKN015
      TEMPO 2511/2513 OVC007
     FM251500 17012G18KT P6SM BKN014
     FM251800 18010KT P6SM OVC025
     FM252100 17013KT P6SM OVC035=



000
FTUS44 KSHV 250521
TAFLFK
TAF
KLFK 250521Z 2506/2606 15007KT P6SM BKN016 WS010/19025KT
      TEMPO 2510/2513 3SM BR OVC004
     FM251500 16010G17KT P6SM BKN025 BKN250
     FM252100 18010KT P6SM VCTS BKN035CB BKN100
     FM260000 18006KT P6SM BKN250=



000
FTUS44 KSHV 241720
TAFLFK
TAF
KLFK 241720Z 2418/2518 16008KT P6SM BKN035
     FM250000 17007KT P6SM SCT100 BKN250
     FM250900 17007KT P6SM BKN015
     FM251600 16012KT P6SM SCT015 BKN250=



000
FTUS44 KSHV 241720
TAFSHV
TAF
KSHV 241720Z 2418/2518 17009KT P6SM SCT025 BKN070
     FM251000 18006KT P6SM BKN015
     FM251600 17010KT P6SM SCT015 BKN100=



000
FTUS44 KSHV 241720
TAFGGG
TAF
KGGG 241720Z 2418/2518 17010KT P6SM BKN025
     FM241900 16010KT P6SM SCT040 BKN100
     FM250900 18010KT P6SM BKN015
     FM251700 17012KT P6SM SCT015 BKN250=



000
FTUS44 KSHV 241720
TAFTXK
TAF
KTXK 241720Z 2418/2518 17010KT P6SM SCT035 OVC250
      TEMPO 2418/2419 BKN025
     FM251100 17007KT P6SM OVC015
     FM251600 18011KT P6SM SCT025 BKN250=



000
FTUS44 KSHV 241720
TAFMLU
TAF
KMLU 241720Z 2418/2518 18007KT P6SM SCT250
     FM251000 17003KT P6SM BKN025
     FM251600 18010KT P6SM SCT025 BKN100=



000
FTUS44 KSHV 241720
TAFTYR
TAF
KTYR 241720Z 2418/2518 17010KT P6SM BKN025
     FM241900 18010KT P6SM SCT040 BKN100
     FM250900 18010KT P6SM BKN015
     FM251700 17012KT P6SM SCT015 BKN250=



000
FTUS44 KSHV 241720
TAFELD
TAF
KELD 241720Z 2418/2518 17009KT P6SM SCT040
     FM250100 16004KT P6SM SCT150 BKN250
     FM251500 17009KT P6SM SCT025 BKN250=



000
FTUS44 KSHV 241516 AAA
TAFLFK
TAF AMD
KLFK 241516Z 2415/2512 12005KT P6SM BKN015
     FM241700 16008KT P6SM BKN035
     FM250000 17007KT P6SM SCT100 BKN250
     FM250900 17007KT P6SM BKN015=



000
FTUS44 KSHV 241516 AAA
TAFGGG
TAF AMD
KGGG 241516Z 2415/2512 17007KT P6SM BKN015
     FM241700 17010KT P6SM BKN035
     FM241900 17010KT P6SM VCTS SCT050CB BKN250
     FM250000 18008KT P6SM SCT050 BKN100
     FM250900 18008KT P6SM BKN015=



000
FTUS44 KSHV 241515 AAA
TAFTXK
TAF AMD
KTXK 241515Z 2415/2512 19009KT P6SM BKN015
     FM241700 17010KT P6SM VCTS SCT050CB BKN250
     FM250000 17007KT P6SM SCT050 BKN100=



000
FTUS44 KSHV 241515 AAA
TAFTYR
TAF AMD
KTYR 241515Z 2415/2512 18007KT P6SM BKN015
     FM241700 17010KT P6SM BKN035
     FM241900 17013KT P6SM VCTS SCT050CB BKN250
     FM250000 18010KT P6SM SCT050 BKN100
     FM250900 18010KT P6SM BKN015=



000
FTUS44 KSHV 241144
TAFGGG
TAF
KGGG 241144Z 2412/2512 17007KT P6SM SCT250
      TEMPO 2412/2415 BKN008
     FM241500 17010KT P6SM BKN035
     FM241800 17010KT P6SM VCTS SCT050CB BKN250
     FM250000 18008KT P6SM SCT050 BKN100
     FM250900 18008KT P6SM BKN015=



000
FTUS44 KSHV 241144
TAFMLU
TAF
KMLU 241144Z 2412/2512 00000KT P6SM SCT250
      TEMPO 2412/2415 BKN025
     FM241500 18007KT P6SM FEW030 SCT250
     FM250000 17005KT P6SM SCT150
     FM251000 17005KT P6SM BKN025=



000
FTUS44 KSHV 241144
TAFTXK
TAF
KTXK 241144Z 2412/2512 13005KT P6SM OVC250
     FM241500 19009KT P6SM SCT035 OVC250
     FM241700 17010KT P6SM VCTS SCT050CB BKN250
     FM250000 17007KT P6SM SCT050 BKN100=



000
FTUS44 KSHV 241144
TAFELD
TAF
KELD 241144Z 2412/2512 14003KT P6SM BKN250
     FM241500 17009KT P6SM SCT025 BKN250
     FM241800 17009KT P6SM SCT100 BKN250
     FM250000 16006KT P6SM SCT150 BKN250=



000
FTUS44 KSHV 241144
TAFTYR
TAF
KTYR 241144Z 2412/2512 18007KT P6SM BKN015
      TEMPO 2412/2415 OVC008
     FM241500 17010KT P6SM BKN035
     FM241800 17013KT P6SM VCTS SCT050CB BKN250
     FM250000 18010KT P6SM SCT050 BKN100
     FM250900 18010KT P6SM BKN015=



000
FTUS44 KSHV 241144
TAFSHV
TAF
KSHV 241144Z 2412/2512 13004KT P6SM SCT280
      TEMPO 2412/2415 2SM BR OVC005
     FM241500 17009KT P6SM SCT015 BKN035
     FM242100 17009KT P6SM VCTS SCT050CB BKN250
     FM250000 16007KT P6SM BKN150
     FM251000 18006KT P6SM BKN015=



000
FTUS44 KSHV 241144
TAFLFK
TAF
KLFK 241144Z 2412/2512 12005KT P6SM BKN015
      TEMPO 2412/2415 6SM BR OVC008
     FM241500 16008KT P6SM BKN035
     FM241800 15010KT P6SM SCT050 BKN250
     FM250000 17007KT P6SM SCT100 BKN250
     FM250900 17007KT P6SM BKN015=



000
FTUS44 KSHV 240902 AAA
TAFTXK
TAF AMD
KTXK 240902Z 2409/2506 16005KT P6SM SCT035 BKN280
     FM241500 19009KT P6SM OVC035
     FM241800 17010KT P6SM VCTS SCT050CB BKN250
     FM250000 17008KT P6SM SCT050 BKN100=



000
FTUS44 KSHV 240901 AAA
TAFSHV
TAF AMD
KSHV 240901Z 2409/2506 19005KT P6SM SCT030 BKN280
     FM241300 17009KT P6SM SCT015 BKN035
     FM242100 17009KT P6SM VCTS SCT050CB BKN250
     FM250000 17010KT P6SM BKN050=



000
FTUS44 KSHV 240520
TAFELD
TAF
KELD 240520Z 2406/2506 14003KT P6SM SKC
     FM241500 17009KT P6SM SCT025 BKN250
     FM241800 15007KT P6SM SCT100 BKN250=



000
FTUS44 KSHV 240520
TAFTXK
TAF
KTXK 240520Z 2406/2506 12005KT P6SM SCT060
     FM240900 16004KT P6SM BKN020
     FM241500 19009KT P6SM OVC035
     FM241800 17010KT P6SM VCTS SCT050CB BKN250
     FM250000 17008KT P6SM SCT050 BKN100=



000
FTUS44 KSHV 240520
TAFTYR
TAF
KTYR 240520Z 2406/2506 16005KT P6SM FEW040 BKN080
     FM240900 16008KT P6SM OVC015
     FM241500 17010KT P6SM BKN035
     FM241800 17013KT P6SM VCTS SCT050CB BKN250
     FM250000 17010KT P6SM SCT050 BKN100=



000
FTUS44 KSHV 240520
TAFMLU
TAF
KMLU 240520Z 2406/2506 00000KT P6SM SKC
      TEMPO 2411/2415 5SM BR BKN025
     FM241500 18007KT P6SM FEW030 SCT250
     FM250000 17005KT P6SM SCT100=



000
FTUS44 KSHV 240520
TAFLFK
TAF
KLFK 240520Z 2406/2506 15005KT P6SM SKC
     FM241500 16010KT P6SM BKN035
     FM241800 15012KT P6SM SCT050 BKN250
     FM250000 17010KT P6SM SCT100 BKN250=



000
FTUS44 KSHV 240039 AAA
TAFGGG
TAF AMD
KGGG 240039Z 2401/2424 14009KT P6SM SKC
     FM240900 16008KT P6SM OVC015
     FM241500 17010KT P6SM BKN035
     FM241800 17010KT P6SM VCTS SCT050CB BKN250=



000
FTUS44 KSHV 232340
TAFTXK
TAF
KTXK 232340Z 2400/2424 16007KT P6SM FEW040
     FM240900 16004KT P6SM BKN020
     FM241500 19009KT P6SM OVC035=



000
FTUS44 KSHV 232340
TAFTYR
TAF
KTYR 232340Z 2400/2424 18009KT P6SM SKC
     FM240900 16008KT P6SM OVC015
     FM241500 17010KT P6SM BKN035
     FM241800 17013KT P6SM VCTS SCT050CB BKN250=



000
FTUS44 KSHV 232340
TAFELD
TAF
KELD 232340Z 2400/2424 12005KT P6SM SKC
     FM241500 17009KT P6SM SCT025 BKN250=



000
FTUS44 KSHV 232340
TAFSHV
TAF
KSHV 232340Z 2400/2424 18008KT P6SM FEW045 BKN250
     FM240900 16004KT P6SM BKN015
     FM241300 17009KT P6SM SCT015 BKN035
     FM242100 17009KT P6SM VCTS SCT050CB BKN250=



000
FTUS44 KSHV 232340
TAFMLU
TAF
KMLU 232340Z 2400/2424 13006KT P6SM SKC
     FM241500 18007KT P6SM SCT250=



000
FTUS44 KSHV 232340
TAFGGG
TAF
KGGG 232340Z 2400/2424 17009G18KT P6SM FEW045
     FM240900 16008KT P6SM OVC015
     FM241500 17010KT P6SM BKN035
     FM241800 17010KT P6SM VCTS SCT050CB BKN250=



000
FTUS44 KSHV 232340
TAFLFK
TAF
KLFK 232340Z 2400/2424 15007KT P6SM SCT070
     FM240600 14005KT P6SM OVC015
     FM241500 16010KT P6SM BKN035
     FM241800 15012KT P6SM VCTS SCT050CB BKN250=



000
FTUS44 KSHV 232003 AAB
TAFTYR
TAF AMD
KTYR 232003Z 2320/2418 17012G20KT P6SM SCT035 OVC250
     FM240000 16008KT P6SM BKN250
     FM240900 16008KT P6SM OVC015
     FM241600 17010KT P6SM BKN035=



000
FTUS44 KSHV 231120
TAFTXK
TAF
KTXK 231120Z 2312/2412 13005KT P6SM BKN250
      TEMPO 2312/2315 BKN035
     FM231900 15008KT P6SM VCTS SCT040CB BKN150
     FM232300 16006KT P6SM BKN250
      TEMPO 2410/2412 4SM BR BKN020=



000
FTUS44 KSHV 231120
TAFMLU
TAF
KMLU 231120Z 2312/2412 15005KT P6SM SCT250
     FM240000 VRB03KT P6SM BKN250
      TEMPO 2410/2412 3SM BR BKN010=



000
FTUS44 KSHV 231120
TAFGGG
TAF
KGGG 231120Z 2312/2412 13005KT P6SM BKN250
      TEMPO 2312/2314 BKN010
     FM231400 16009KT P6SM SCT035 BKN250
      TEMPO 2314/2316 BKN030
     FM232100 16011KT P6SM VCTS BKN050CB
     FM240000 16008KT P6SM BKN250
      TEMPO 2409/2412 BKN015=



000
FTUS44 KSHV 231120
TAFTYR
TAF
KTYR 231120Z 2312/2412 17006KT P6SM BKN010
      TEMPO 2312/2314 SCT015
     FM231400 16009KT P6SM SCT030 BKN250
      TEMPO 2314/2316 BKN025
     FM232000 16011KT P6SM VCTS BKN050CB
     FM240000 16008KT P6SM BKN250
      TEMPO 2408/2412 BKN015=



000
FTUS44 KSHV 231120
TAFSHV
TAF
KSHV 231120Z 2312/2412 13005KT P6SM BKN250
     FM231800 15010KT P6SM SCT030 BKN250
     FM240000 15006KT P6SM BKN250
      TEMPO 2409/2412 BKN015=



000
FTUS44 KSHV 231120
TAFELD
TAF
KELD 231120Z 2312/2412 00000KT P6SM SKC
      TEMPO 2312/2314 3SM BR
     FM231700 15006KT P6SM BKN250
     FM240000 VRB04KT P6SM SCT100 BKN250
      TEMPO 2409/2412 3SM BR=



000
FTUS44 KSHV 231120
TAFLFK
TAF
KLFK 231120Z 2312/2412 14004KT 4SM BR BKN005
      TEMPO 2312/2314 1SM BR OVC002
     FM231400 13007KT P6SM SCT025 BKN250
      TEMPO 2314/2316 5SM BR BKN020
     FM240000 14005KT P6SM SCT050 BKN250
     FM240500 14005KT P6SM BKN030
      TEMPO 2408/2412 3SM BR OVC015=



000
FTUS44 KSHV 231009 AAA
TAFLFK
TAF AMD
KLFK 231009Z 2310/2406 10003KT 1/4SM FG VV002
      TEMPO 2311/2313 3SM BR BKN007
     FM231300 13007KT P6SM SCT020 BKN250
      TEMPO 2313/2315 4SM BR BKN015
     FM232100 16011KT P6SM VCTS BKN050CB
     FM240300 15007KT P6SM OVC050=



000
FTUS44 KSHV 230521
TAFLFK
TAF
KLFK 230521Z 2306/2406 10003KT P6SM SKC
      TEMPO 2309/2313 4SM BR BKN007
     FM231300 13007KT P6SM SCT020 BKN250
      TEMPO 2313/2315 BKN015
     FM232100 16011KT P6SM VCTS BKN050CB
     FM240300 15007KT P6SM OVC050=



000
FTUS44 KSHV 230521
TAFTYR
TAF
KTYR 230521Z 2306/2406 12006KT P6SM BKN040 BKN250
      TEMPO 2309/2313 BKN015
     FM231500 16009KT P6SM SCT030 BKN250
     FM232100 16011KT P6SM VCTS BKN050CB
     FM240000 16010KT P6SM OVC250=



000
FTUS44 KSHV 230521
TAFSHV
TAF
KSHV 230521Z 2306/2406 00000KT P6SM BKN120 OVC250
     FM231500 15010KT P6SM SCT030 BKN250
     FM240000 15006KT P6SM BKN250=



000
FTUS44 KSHV 230521
TAFMLU
TAF
KMLU 230521Z 2306/2406 00000KT P6SM SCT250
      TEMPO 2310/2313 4SM BR
     FM231500 15006KT P6SM SCT030
     FM240000 15004KT P6SM SKC=



000
FTUS44 KSHV 230521
TAFTXK
TAF
KTXK 230521Z 2306/2406 13004KT P6SM SCT120 BKN250
     FM231500 15009KT P6SM SCT030 BKN250
     FM240000 15009KT P6SM SCT250=



000
FTUS44 KSHV 230521
TAFELD
TAF
KELD 230521Z 2306/2406 00000KT P6SM SKC
      TEMPO 2310/2313 4SM BR
     FM231500 14005KT P6SM SCT030 SCT250
     FM232100 17006KT P6SM SCT050
     FM240000 12006KT P6SM FEW250=



000
FTUS44 KSHV 230521
TAFGGG
TAF
KGGG 230521Z 2306/2406 11003KT P6SM SKC
      TEMPO 2309/2313 5SM BR BKN015
     FM231500 15008KT P6SM SCT030 BKN250
     FM232100 16011KT P6SM VCTS BKN050CB
     FM240000 16008KT P6SM OVC050=



000
FTUS44 KSHV 222340
TAFMLU
TAF
KMLU 222340Z 2300/2324 08006KT P6SM SKC
      TEMPO 2310/2313 00000KT 5SM BR
     FM231500 15006KT P6SM FEW030 SCT250=



000
FTUS44 KSHV 222340
TAFELD
TAF
KELD 222340Z 2300/2324 06007KT P6SM SKC
      TEMPO 2310/2312 5SM BR
     FM231500 14005KT P6SM FEW030 SCT250
     FM232100 17006KT P6SM OVC050=



000
FTUS44 KSHV 222340
TAFSHV
TAF
KSHV 222340Z 2300/2324 07006KT P6SM FEW060 SCT290
     FM230900 11004KT P6SM BKN120 BKN250
     FM231500 15010KT P6SM FEW030 SCT120 BKN250=



000
FTUS44 KSHV 222340
TAFTYR
TAF
KTYR 222340Z 2300/2324 11009KT P6SM SCT045
     FM230100 12007KT P6SM SCT250
     FM230600 13006KT P6SM FEW025 BKN120 BKN250
      TEMPO 2309/2313 5SM BR BKN015
     FM231500 16009KT P6SM FEW030 SCT120 BKN250
     FM232100 16011KT P6SM VCTS BKN050CB=



000
FTUS44 KSHV 222340
TAFGGG
TAF
KGGG 222340Z 2300/2324 10009KT P6SM SKC
     FM230100 11006KT P6SM SCT250
     FM230600 12005KT P6SM FEW025 BKN120 BKN250
      TEMPO 2309/2313 5SM BR BKN015
     FM231500 15008KT P6SM FEW030 SCT120 BKN250
     FM232100 16011KT P6SM VCTS BKN050CB=



000
FTUS44 KSHV 222340
TAFTXK
TAF
KTXK 222340Z 2300/2324 VRB06KT P6SM SKC
     FM230100 11005KT P6SM FEW250
     FM230900 12004KT P6SM BKN120 BKN250
     FM231500 15009KT P6SM FEW030 SCT120 BKN250=



000
FTUS44 KSHV 222340
TAFLFK
TAF
KLFK 222340Z 2300/2324 VRB05KT P6SM SCT045
     FM230100 11005KT P6SM SCT250
     FM230600 12004KT P6SM FEW025 BKN120 BKN250
      TEMPO 2309/2313 5SM BR BKN010
     FM231500 13007KT P6SM FEW030 SCT120 BKN250
     FM232100 16011KT P6SM VCTS BKN050CB=



    US Dept of Commerce
    National Oceanic and Atmospheric Administration
    National Weather Service
    1325 East West Highway
    Silver Spring, MD 20910
    Page Author: NWS Internet Services Team
Disclaimer
Information Quality
Credits
Glossary
Privacy Policy
Freedom of Information Act (FOIA)
About Us
Career Opportunities